Home > Products > Valid Products > TAF

000
FTUS43 KGRB 292300
TAFGRB
TAF
KGRB 292338Z 3000/3024 30007KT P6SM VCSH SCT040 BKN100
     FM300200 30003KT P6SM SCT012 SCT070
     FM300900 34002KT 4SM BR SCT012
     FM301200 36005KT P6SM SCT100
     FM302000 29006KT P6SM VCSH SCT035 BKN060=



000
FTUS43 KGRB 292300
TAFOSH
TAF
KOSH 292338Z 3000/3024 03012G16KT 6SM -SHRA SCT040 BKN080
      TEMPO 3000/3001 2SM -TSRA BKN035CB
     FM300100 28003KT P6SM VCSH SCT035 BKN080
     FM300300 34003KT 6SM BR SCT012 SCT070
     FM301200 34004KT P6SM SCT070=



000
FTUS43 KGRB 292300
TAFGRB
TAF
KGRB 292338Z 3000/3024 30007KT P6SM VCSH SCT040 BKN100
     FM300200 30003KT P6SM SCT012 SCT070
     FM300900 34002KT 4SM BR SCT012
     FM301200 36005KT P6SM SCT100
     FM302000 29006KT P6SM VCSH SCT035 BKN060=



000
FTUS43 KGRB 292300 AAD
TAFOSH
TAF AMD
KOSH 292305Z 2923/3018 30007G16KT P6SM SCT040 SCT080
      TEMPO 2923/3001 04015KT 2SM -TSRA BKN035CB
     FM300100 28003KT P6SM VCSH SCT035 BKN080
     FM300500 34003KT 6SM BR SCT012 SCT070
     FM301200 34004KT P6SM SCT070=



000
FTUS43 KGRB 292200 AAC
TAFOSH
TAF AMD
KOSH 292217Z 2922/3018 30007G16KT P6SM SCT040 SCT080
      TEMPO 2923/3001 3SM -TSRA BKN035CB
     FM300100 28003KT P6SM VCSH SCT035 BKN080
     FM300500 34003KT 6SM BR SCT012 SCT070
     FM301200 34004KT P6SM SCT070=



000
FTUS43 KGRB 292200 AAA
TAFGRB
TAF AMD
KGRB 292208Z 2922/3018 30007KT P6SM VCSH SCT040 BKN100
      TEMPO 2922/2923 VRB15KT 2SM -TSRA BKN035CB
     FM300600 35005KT P6SM SCT012 SCT070
     FM300900 34002KT 4SM BR FEW070
     FM301200 36005KT P6SM SCT100=



000
FTUS43 KGRB 292100 AAB
TAFOSH
TAF AMD
KOSH 292127Z 2921/3018 30007KT P6SM SCT040 SCT080
     FM300000 28003KT P6SM VCSH SCT035 BKN080
     FM300800 34003KT 6SM BR SCT012 SCT070
     FM301200 34004KT P6SM SCT070=



000
FTUS43 KGRB 291800 AAA
TAFOSH
TAF AMD
KOSH 291827Z 2918/3018 30007G17KT P6SM VCSH SCT040 BKN100
      TEMPO 2919/2923 5SM -TSRA BKN035CB
     FM300000 28003KT P6SM VCSH SCT035 BKN080
     FM300800 34003KT 6SM BR SCT012 SCT070
     FM301200 34004KT P6SM SCT070=



000
FTUS43 KGRB 291700
TAFOSH
TAF
KOSH 291725Z 2918/3018 30007KT P6SM VCSH SCT040 BKN090
      TEMPO 2919/2923 5SM -TSRA BKN035CB
     FM300000 28003KT P6SM VCSH SCT035 BKN080
     FM300800 34003KT 6SM BR SCT012 SCT070
     FM301200 34004KT P6SM SCT070=



000
FTUS43 KGRB 291700
TAFGRB
TAF
KGRB 291725Z 2918/3018 30007KT P6SM VCSH SCT040 BKN100
      TEMPO 2918/2922 5SM -TSRA BKN035CB
     FM300600 35005KT P6SM SCT012 SCT070
     FM300900 34002KT 4SM BR FEW070
     FM301200 36005KT P6SM SCT100=



000
FTUS43 KGRB 291700
TAFGRB
TAF
KGRB 291725Z 2918/3018 30007KT P6SM VCSH SCT040 BKN100
      TEMPO 2918/2922 5SM -TSRA BKN035CB
     FM300600 35005KT P6SM SCT012 SCT070
     FM300900 34002KT 4SM BR FEW070
     FM301200 36005KT P6SM SCT100=



000
FTUS43 KGRB 291100
TAFOSH
TAF
KOSH 291120Z 2912/3012 29006KT P6SM BKN100
     FM291700 31008KT P6SM VCSH SCT040 BKN090
      TEMPO 2919/2923 5SM -TSRA BKN035CB
     FM300000 28003KT P6SM VCSH SCT035 BKN080
     FM300800 34005KT P6SM SCT012 SCT070=



000
FTUS43 KGRB 291100
TAFGRB
TAF
KGRB 291120Z 2912/3012 30007KT P6SM BKN100
     FM291600 31008KT P6SM VCSH SCT040 BKN090
      TEMPO 2918/2922 5SM -TSRA BKN035CB
     FM300600 35005KT P6SM SCT012 SCT070=



000
FTUS43 KGRB 291100
TAFGRB
TAF
KGRB 291120Z 2912/3012 30007KT P6SM BKN100
     FM291600 31008KT P6SM VCSH SCT040 BKN090
      TEMPO 2918/2922 5SM -TSRA BKN035CB
     FM300600 35005KT P6SM SCT012 SCT070=



000
FTUS43 KGRB 290500
TAFGRB
TAF
KGRB 290520Z 2906/3006 28005KT P6SM SCT060 BKN080
     FM290900 32005KT P6SM SCT080
     FM291600 32008KT P6SM VCSH BKN050 BKN090=



000
FTUS43 KGRB 290500
TAFOSH
TAF
KOSH 290520Z 2906/3006 33006KT P6SM SCT060 BKN080
     FM290900 32005KT P6SM SCT080
     FM291800 32008KT P6SM VCSH BKN050 BKN090=



000
FTUS43 KGRB 290500
TAFGRB
TAF
KGRB 290520Z 2906/3006 28005KT P6SM SCT060 BKN080
     FM290900 32005KT P6SM SCT080
     FM291600 32008KT P6SM VCSH BKN050 BKN090=



000
FTUS43 KGRB 282300
TAFGRB
TAF
KGRB 282336Z 2900/2924 33006KT P6SM SCT060 BKN080
     FM290900 32005KT P6SM SCT080
     FM291800 32008KT P6SM VCSH SCT050 BKN090=



000
FTUS43 KGRB 282300
TAFOSH
TAF
KOSH 282336Z 2900/2924 33006KT P6SM SCT060 BKN080
     FM290900 32005KT P6SM SCT080
     FM291800 32008KT P6SM VCSH SCT050 BKN090=



000
FTUS43 KGRB 281800 AAA
TAFGRB
TAF AMD
KGRB 281851Z 2819/2918 35009KT P6SM BKN060
     FM290000 31004KT P6SM SCT060 BKN100
     FM291600 32008KT P6SM SCT050 BKN090=



000
FTUS43 KGRB 281800 AAA
TAFGRB
TAF AMD
KGRB 281851Z 2819/2918 35009KT P6SM BKN060
     FM290000 31004KT P6SM SCT060 BKN100
     FM291600 32008KT P6SM SCT050 BKN090=



000
FTUS43 KGRB 281800 AAA
TAFOSH
TAF AMD
KOSH 281800Z 2818/2918 35009KT P6SM SCT045 BKN060
     FM290000 31004KT P6SM SCT060 BKN100
     FM291600 32008KT P6SM SCT050 BKN090=



000
FTUS43 KGRB 281700
TAFGRB
TAF
KGRB 281736Z 2818/2918 35009KT P6SM SCT045
     FM290000 31004KT P6SM SCT060 BKN100
     FM291600 32008KT P6SM SCT050 BKN090=



000
FTUS43 KGRB 281700
TAFOSH
TAF
KOSH 281736Z 2818/2918 35009KT P6SM SCT045
     FM290000 31004KT P6SM SCT060 BKN100
     FM291600 32008KT P6SM SCT050 BKN090=



000
FTUS43 KGRB 281700
TAFGRB
TAF
KGRB 281736Z 2818/2918 35009KT P6SM SCT045
     FM290000 31004KT P6SM SCT060 BKN100
     FM291600 32008KT P6SM SCT050 BKN090=



000
FTUS43 KGRB 281100
TAFOSH
TAF
KOSH 281122Z 2812/2912 35009KT P6SM SKC
     FM281500 33010G16KT P6SM SCT050
      TEMPO 2817/2821 BKN060
     FM282100 33009KT P6SM FEW050 BKN100=



000
FTUS43 KGRB 281100
TAFGRB
TAF
KGRB 281122Z 2812/2912 35009KT P6SM SKC
     FM281500 33010G16KT P6SM SCT050
      TEMPO 2817/2821 BKN060
     FM282100 33009KT P6SM FEW050 BKN100=



000
FTUS43 KGRB 280500
TAFGRB
TAF
KGRB 280525Z 2806/2906 35009KT P6SM SKC
     FM281600 33010G16KT P6SM SCT050
      TEMPO 2818/2821 BKN060=



000
FTUS43 KGRB 280500
TAFOSH
TAF
KOSH 280525Z 2806/2906 35009KT P6SM SKC
     FM281600 33010G16KT P6SM SCT050
      TEMPO 2818/2821 BKN060=



000
FTUS43 KGRB 280500
TAFGRB
TAF
KGRB 280525Z 2806/2906 35009KT P6SM SKC
     FM281600 33010G16KT P6SM SCT050
      TEMPO 2818/2821 BKN060=



000
FTUS43 KGRB 272300
TAFGRB
TAF
KGRB 272336Z 2800/2824 36012G22KT P6SM SCT015 SCT030
      TEMPO 2800/2801 BKN030
     FM280200 36011KT P6SM SCT030
     FM280600 35009KT P6SM SKC
     FM281600 36010G16KT P6SM SCT040=



000
FTUS43 KGRB 272300
TAFOSH
TAF
KOSH 272336Z 2800/2824 36012G22KT P6SM SCT015 SCT030
      TEMPO 2800/2802 -SHRA BKN030
     FM280200 36011KT P6SM SCT030
     FM280600 35009KT P6SM SKC
     FM281600 36010G16KT P6SM SCT040=



000
FTUS43 KGRB 272300
TAFGRB
TAF
KGRB 272336Z 2800/2824 36012G22KT P6SM SCT015 SCT030
      TEMPO 2800/2801 BKN030
     FM280200 36011KT P6SM SCT030
     FM280600 35009KT P6SM SKC
     FM281600 36010G16KT P6SM SCT040=



000
FTUS43 KGRB 272200 AAC
TAFGRB
TAF AMD
KGRB 272232Z 2723/2818 35012G19KT P6SM VCSH SCT015 BKN025 OVC100
      TEMPO 2723/2724 BKN015
     FM280000 36012KT P6SM SCT015 BKN025
     FM280300 36011KT P6SM SCT030
     FM280600 35009KT P6SM SKC
     FM281600 36010G16KT P6SM SCT040=



000
FTUS43 KGRB 272200 AAC
TAFGRB
TAF AMD
KGRB 272232Z 2723/2818 35012G19KT P6SM VCSH SCT015 BKN025 OVC100
      TEMPO 2723/2724 BKN015
     FM280000 36012KT P6SM SCT015 BKN025
     FM280300 36011KT P6SM SCT030
     FM280600 35009KT P6SM SKC
     FM281600 36010G16KT P6SM SCT040=



000
FTUS43 KGRB 272000 AAC
TAFOSH
TAF AMD
KOSH 272052Z 2721/2818 34014G25KT P6SM -SHRA SCT025 BKN040
      TEMPO 2721/2722 3SM RA
     FM280000 35012KT P6SM SCT015 BKN030
     FM280300 36011KT P6SM SCT030
     FM280600 35009KT P6SM SKC
     FM281600 36010G16KT P6SM SCT040=



000
FTUS43 KGRB 272000 AAB
TAFOSH
TAF AMD
KOSH 272035Z 2721/2818 34014G25KT P6SM -SHRA SCT025 BKN040
      TEMPO 2721/2722 5SM RA
     FM280000 35012KT P6SM SCT015 BKN030
     FM280300 36011KT P6SM SCT030
     FM280600 35009KT P6SM SKC
     FM281600 36010G16KT P6SM SCT040=



000
FTUS43 KGRB 271900 AAB
TAFGRB
TAF AMD
KGRB 271952Z 2720/2818 35012G19KT P6SM VCSH SCT040 BKN080
      TEMPO 2720/2721 4SM -SHRA BR SCT025 BKN040
     FM272100 36010G17KT P6SM SCT025 BKN035
     FM280000 36012KT P6SM SCT015 BKN030
     FM280300 36011KT P6SM SCT030
     FM280600 35009KT P6SM SKC
     FM281600 36010G16KT P6SM SCT040=



000
FTUS43 KGRB 271900 AAB
TAFGRB
TAF AMD
KGRB 271952Z 2720/2818 35012G19KT P6SM VCSH SCT040 BKN080
      TEMPO 2720/2721 4SM -SHRA BR SCT025 BKN040
     FM272100 36010G17KT P6SM SCT025 BKN035
     FM280000 36012KT P6SM SCT015 BKN030
     FM280300 36011KT P6SM SCT030
     FM280600 35009KT P6SM SKC
     FM281600 36010G16KT P6SM SCT040=



000
FTUS43 KGRB 271900 AAA
TAFOSH
TAF AMD
KOSH 271922Z 2719/2818 30011G18KT P6SM VCSH SCT040 BKN080
      TEMPO 2719/2721 6SM -SHRA BR SCT025 BKN040
     FM272100 35010G17KT P6SM -SHRA SCT025 BKN040
     FM280000 35012KT P6SM SCT015 BKN030
     FM280300 36011KT P6SM SCT030
     FM280600 35009KT P6SM SKC
     FM281600 36010G16KT P6SM SCT040=



000
FTUS43 KGRB 271900 AAA
TAFGRB
TAF AMD
KGRB 271902Z 2719/2818 35012G19KT P6SM VCSH SCT040 BKN080
      TEMPO 2719/2721 6SM -SHRA BR SCT025 BKN040
     FM272100 36010G17KT P6SM SCT025 BKN035
     FM280000 36012KT P6SM SCT015 BKN030
     FM280300 36011KT P6SM SCT030
     FM280600 35009KT P6SM SKC
     FM281600 36010G16KT P6SM SCT040=



000
FTUS43 KGRB 271900 AAA
TAFGRB
TAF AMD
KGRB 271902Z 2719/2818 35012G19KT P6SM VCSH SCT040 BKN080
      TEMPO 2719/2721 6SM -SHRA BR SCT025 BKN040
     FM272100 36010G17KT P6SM SCT025 BKN035
     FM280000 36012KT P6SM SCT015 BKN030
     FM280300 36011KT P6SM SCT030
     FM280600 35009KT P6SM SKC
     FM281600 36010G16KT P6SM SCT040=



000
FTUS43 KGRB 271700
TAFGRB
TAF
KGRB 271734Z 2718/2818 30011G18KT P6SM VCSH SCT040 BKN080
      TEMPO 2718/2720 3SM -TSRA BR SCT025 BKN040CB
     FM272000 35010G17KT P6SM -SHRA SCT025 BKN040
     FM280000 35012KT P6SM SCT015 BKN030
     FM280300 36011KT P6SM SCT030
     FM280600 35009KT P6SM SKC
     FM281600 36010G16KT P6SM SCT040=



000
FTUS43 KGRB 271700
TAFOSH
TAF
KOSH 271734Z 2718/2818 30011G18KT P6SM VCSH SCT040 BKN080
      TEMPO 2718/2720 3SM -TSRA BR SCT025 BKN040CB
     FM272000 35010G17KT P6SM -SHRA SCT025 BKN040
     FM280000 35012KT P6SM SCT015 BKN030
     FM280300 36011KT P6SM SCT030
     FM280600 35009KT P6SM SKC
     FM281600 36010G16KT P6SM SCT040=



000
FTUS43 KGRB 271600 AAB
TAFGRB
TAF AMD
KGRB 271624Z 2716/2812 30012G18KT P6SM VCSH SCT035 BKN080
      TEMPO 2718/2720 3SM -TSRA BR SCT025 BKN035CB
     FM272200 36014G19KT P6SM SCT015 BKN040
     FM280000 35012KT P6SM BKN100
     FM280300 36011KT P6SM SKC=



000
FTUS43 KGRB 271600 AAB
TAFGRB
TAF AMD
KGRB 271624Z 2716/2812 30012G18KT P6SM VCSH SCT035 BKN080
      TEMPO 2718/2720 3SM -TSRA BR SCT025 BKN035CB
     FM272200 36014G19KT P6SM SCT015 BKN040
     FM280000 35012KT P6SM BKN100
     FM280300 36011KT P6SM SKC=



000
FTUS43 KGRB 271600 AAB
TAFOSH
TAF AMD
KOSH 271622Z 2716/2812 30011G17KT P6SM VCSH SCT035 BKN080
      TEMPO 2718/2720 3SM -TSRA BR SCT020 BKN030CB
     FM272200 36014G19KT P6SM SCT015 BKN050
     FM280000 35012KT P6SM BKN100
     FM280300 36011KT P6SM SKC=



000
FTUS43 KGRB 271400 AAA
TAFGRB
TAF AMD
KGRB 271401Z 2714/2812 26010G15KT P6SM SCT080 SCT120
     FM271500 29011KT P6SM VCSH SCT035 BKN080
      TEMPO 2716/2720 3SM -SHRA BR SCT020 BKN030
     FM272200 36014G19KT P6SM SCT015 BKN040
     FM280000 35012KT P6SM BKN100
     FM280300 36011KT P6SM SKC=



000
FTUS43 KGRB 271400 AAA
TAFGRB
TAF AMD
KGRB 271401Z 2714/2812 26010G15KT P6SM SCT080 SCT120
     FM271500 29011KT P6SM VCSH SCT035 BKN080
      TEMPO 2716/2720 3SM -SHRA BR SCT020 BKN030
     FM272200 36014G19KT P6SM SCT015 BKN040
     FM280000 35012KT P6SM BKN100
     FM280300 36011KT P6SM SKC=



000
FTUS43 KGRB 271400 AAA
TAFOSH
TAF AMD
KOSH 271401Z 2714/2812 28010G16KT P6SM SCT080 SCT120
     FM271500 29011KT P6SM VCSH SCT035 BKN080
      TEMPO 2716/2720 3SM -SHRA BR SCT020 BKN030
     FM272200 36014G19KT P6SM SCT015 BKN050
     FM280000 35012KT P6SM BKN100
     FM280300 36011KT P6SM SKC=



000
FTUS43 KGRB 271100
TAFGRB
TAF
KGRB 271135Z 2712/2812 25005KT P6SM SCT080 SCT120
      TEMPO 2712/2715 5SM BR BKN080
     FM271500 29011KT P6SM VCSH SCT035 BKN080
      TEMPO 2716/2720 3SM -SHRA BR SCT020 BKN030
     FM272200 36014G19KT P6SM SCT015 BKN040
     FM280000 35012KT P6SM BKN100
     FM280300 36011KT P6SM SKC=



000
FTUS43 KGRB 271100
TAFGRB
TAF
KGRB 271135Z 2712/2812 25005KT P6SM SCT080 SCT120
      TEMPO 2712/2715 5SM BR BKN080
     FM271500 29011KT P6SM VCSH SCT035 BKN080
      TEMPO 2716/2720 3SM -SHRA BR SCT020 BKN030
     FM272200 36014G19KT P6SM SCT015 BKN040
     FM280000 35012KT P6SM BKN100
     FM280300 36011KT P6SM SKC=



000
FTUS43 KGRB 271100
TAFOSH
TAF
KOSH 271135Z 2712/2812 25005KT P6SM SCT080 SCT120
      TEMPO 2712/2715 5SM BR BKN080
     FM271500 29011KT P6SM VCSH SCT035 BKN080
      TEMPO 2716/2720 3SM -SHRA BR SCT020 BKN030
     FM272200 36014G19KT P6SM SCT015 BKN050
     FM280000 35012KT P6SM BKN100
     FM280300 36011KT P6SM SKC=



000
FTUS43 KGRB 270700 AAA
TAFOSH
TAF AMD
KOSH 270728Z 2707/2806 23005KT P6SM SCT030 BKN140
      TEMPO 2707/2711 4SM -SHRA BR
     FM271500 27011KT P6SM VCSH SCT040 BKN060
      TEMPO 2716/2720 3SM -SHRA BR SCT020 BKN035
     FM272200 36012KT P6SM SCT015 BKN050=



000
FTUS43 KGRB 270500
TAFOSH
TAF
KOSH 270520Z 2706/2806 23005KT P6SM SCT150
      TEMPO 2708/2712 4SM BR
     FM271500 27011KT P6SM VCSH SCT040 BKN060
      TEMPO 2716/2720 3SM -SHRA BR SCT020 BKN035
     FM272200 36012KT P6SM SCT015 BKN050=



000
FTUS43 KGRB 270500
TAFGRB
TAF
KGRB 270520Z 2706/2806 23005KT P6SM SCT150
      TEMPO 2708/2712 4SM BR
     FM271500 27011KT P6SM VCSH SCT040 BKN060
      TEMPO 2716/2720 3SM -SHRA BR SCT020 BKN035
     FM272200 36012KT P6SM SCT015 BKN050=



000
FTUS43 KGRB 270500
TAFGRB
TAF
KGRB 270520Z 2706/2806 23005KT P6SM SCT150
      TEMPO 2708/2712 4SM BR
     FM271500 27011KT P6SM VCSH SCT040 BKN060
      TEMPO 2716/2720 3SM -SHRA BR SCT020 BKN035
     FM272200 36012KT P6SM SCT015 BKN050=



    US Dept of Commerce
    National Oceanic and Atmospheric Administration
    National Weather Service
    1325 East West Highway
    Silver Spring, MD 20910
    Page Author: NWS Internet Services Team
Disclaimer
Information Quality
Credits
Glossary
Privacy Policy
Freedom of Information Act (FOIA)
About Us
Career Opportunities